キンシャサ の空港の天気 - METARとTAF

キンシャサ/ヌジリ国際空港 ( FZAA / FIH ) - コンゴ民主共和国 キンシャサ
飛行場実況気象(Metar)
観測時間11/19 11:00 WAT (11/19 10:00 UTC)
風向・風速北西 4m/s
視程10km以上
天気現象
全天の4割程度の雲 雲底高度 670m
少しの雲 雲底高度 850m
全天の8割程度の雲 雲底高度 3050m
気温29℃
湿度70%
気圧1012hPa
METARFZAA 191000Z 31008KT 9999 SCT022 FEW028TCU BKN100 29/23 Q1012 NOSIG
過去の天気等 Google飛行場航空写真 Wunderground天気予報

過去48時間のMETAR

飛行場予報(TAF)
発表時間: 11/19 06:00 WAT (11/19 05:00 UTC)
予報対象時間: 19日7時 WAT ~ 20日13時 WAT
風向・風速南西 2m/s
視程9000m
全天の4割程度の雲 雲底高度 490m
19日12時 WAT ~ 19日14時 WAT に徐々に
風向・風速北西 5m/s
全天の4割程度の雲 雲底高度 730m
少しの積乱雲 雲底高度 910m
19日16時 WAT ~ 19日20時 WAT に一時的に
天気現象
19日23時 WAT ~ 20日3時 WAT に 確率 30% で一時的に
視程4000m
天気現象雷雨
20日3時 WAT ~ 20日5時 WAT に徐々に
風向・風速南南西 2m/s
全天の4割程度の雲 雲底高度 490m
TAF COR FZAA 190500Z 1906/2012 22004KT 9000 SCT016
BECMG 1911/1913 32010KT SCT024 FEW030CB
TEMPO 1915/1919 TS
PROB30 TEMPO 1922/2002 4000 TSRA
BECMG 2002/2004 20004KT SCT016